createdAt,value
2018-07-17T00:00:04.201Z,99183.12
2018-07-17T00:02:35.014Z,99178.95
2018-07-17T00:05:06.466Z,99178.67
2018-07-17T00:07:37.357Z,99171.16
2018-07-17T00:10:08.498Z,99173.75
2018-07-17T00:12:39.226Z,99165.92
2018-07-17T00:15:09.856Z,99171.44
2018-07-17T00:17:40.224Z,99169.64
2018-07-17T00:20:10.785Z,99171.20
2018-07-17T00:22:41.678Z,99172.79
2018-07-17T00:25:12.270Z,99167.61
2018-07-17T00:27:43.109Z,99161.09
2018-07-17T00:30:13.751Z,99166.83
2018-07-17T00:32:44.540Z,99157.69
2018-07-17T00:35:15.173Z,99150.14
2018-07-17T00:37:45.969Z,99147.53
2018-07-17T00:40:16.806Z,99154.30
2018-07-17T00:42:47.554Z,99157.72
2018-07-17T00:45:18.204Z,99157.58
2018-07-17T00:47:48.885Z,99157.61
2018-07-17T00:50:19.618Z,99152.20
2018-07-17T00:52:50.485Z,99142.53
2018-07-17T00:55:21.145Z,99150.91
2018-07-17T00:57:51.661Z,99146.24
2018-07-17T01:00:26.273Z,99148.58
2018-07-17T01:03:01.677Z,99156.13
2018-07-17T01:05:38.749Z,99161.09
2018-07-17T01:08:14.220Z,99154.57
2018-07-17T01:10:49.823Z,99153.80
2018-07-17T01:13:23.985Z,99150.35
2018-07-17T01:15:54.745Z,99158.17
2018-07-17T01:18:25.583Z,99156.92
2018-07-17T01:20:56.110Z,99147.41
2018-07-17T01:23:26.925Z,99146.91
2018-07-17T01:25:57.783Z,99140.12
2018-07-17T01:28:28.625Z,99143.19
2018-07-17T01:30:59.345Z,99144.55
2018-07-17T01:33:30.190Z,99136.44
2018-07-17T01:36:00.713Z,99138.09
2018-07-17T01:38:31.518Z,99141.22
2018-07-17T01:41:02.182Z,99139.59
2018-07-17T01:43:34.078Z,99147.97
2018-07-17T01:46:04.695Z,99149.48
2018-07-17T01:48:35.285Z,99153.94
2018-07-17T01:51:05.867Z,99162.86
2018-07-17T01:53:36.548Z,99157.66
2018-07-17T01:56:07.350Z,99156.11
2018-07-17T01:58:38.021Z,99162.87
2018-07-17T02:01:08.826Z,99161.62
2018-07-17T02:03:39.453Z,99163.17
2018-07-17T02:06:10.186Z,99155.35
2018-07-17T02:08:41.123Z,99153.02
2018-07-17T02:11:11.793Z,99144.14
2018-07-17T02:13:42.513Z,99150.91
2018-07-17T02:16:13.093Z,99154.27
2018-07-17T02:18:43.713Z,99151.55
2018-07-17T02:21:14.486Z,99161.08
2018-07-17T02:23:45.578Z,99162.64
2018-07-17T02:26:16.208Z,99166.80
2018-07-17T02:28:46.877Z,99167.84
2018-07-17T02:31:17.514Z,99162.77
2018-07-17T02:33:48.461Z,99161.98
2018-07-17T02:36:19.148Z,99165.92
2018-07-17T02:38:50.247Z,99174.80
2018-07-17T02:41:20.843Z,99180.25
2018-07-17T02:43:51.874Z,99172.21
2018-07-17T02:46:22.605Z,99170.42
2018-07-17T02:48:53.373Z,99176.66
2018-07-17T02:51:24.050Z,99171.42
2018-07-17T02:53:54.779Z,99171.19
2018-07-17T02:56:25.415Z,99176.92
2018-07-17T02:58:56.098Z,99171.44
2018-07-17T03:01:26.284Z,99169.34
2018-07-17T03:03:57.158Z,99164.66
2018-07-17T03:06:27.841Z,99168.84
2018-07-17T03:08:58.967Z,99167.01
2018-07-17T03:11:29.669Z,99163.13
2018-07-17T03:14:00.213Z,99149.57
2018-07-17T03:16:30.930Z,99141.50
2018-07-17T03:19:01.982Z,99144.89
2018-07-17T03:21:32.703Z,99151.66
2018-07-17T03:24:03.558Z,99161.88
2018-07-17T03:26:34.264Z,99153.80
2018-07-17T03:29:05.012Z,99157.95
2018-07-17T03:31:35.751Z,99149.89
2018-07-17T03:34:06.547Z,99143.34
2018-07-17T03:36:37.273Z,99149.63
2018-07-17T03:39:09.225Z,99143.11
2018-07-17T03:41:39.895Z,99149.09
2018-07-17T03:44:10.356Z,99145.88
2018-07-17T03:46:40.974Z,99143.50
2018-07-17T03:49:11.734Z,99143.59
2018-07-17T03:51:42.310Z,99150.11
2018-07-17T03:54:13.084Z,99149.63
2018-07-17T03:56:43.821Z,99150.93
2018-07-17T03:59:14.567Z,99143.07
2018-07-17T04:01:45.197Z,99150.93
2018-07-17T04:04:16.253Z,99147.77
2018-07-17T04:06:46.809Z,99147.75
2018-07-17T04:09:17.526Z,99150.55
2018-07-17T04:11:48.237Z,99157.27
2018-07-17T04:14:18.914Z,99159.36
2018-07-17T04:16:53.652Z,99157.73
2018-07-17T04:19:25.720Z,99155.17
2018-07-17T04:21:56.401Z,99153.04
2018-07-17T04:24:27.230Z,99149.63
2018-07-17T04:26:57.930Z,99150.59
2018-07-17T04:29:28.869Z,99144.44
2018-07-17T04:31:59.499Z,99154.78
2018-07-17T04:34:30.046Z,99164.51
2018-07-17T04:37:00.852Z,99155.06
2018-07-17T04:39:31.590Z,99161.02
2018-07-17T04:42:02.282Z,99159.78
2018-07-17T04:44:33.160Z,99162.11
2018-07-17T04:47:03.837Z,99156.61
2018-07-17T04:49:34.261Z,99146.22
2018-07-17T04:52:05.106Z,99152.21
2018-07-17T04:54:36.189Z,99142.48
2018-07-17T04:57:06.969Z,99151.20
2018-07-17T04:59:37.765Z,99147.35
2018-07-17T05:02:08.602Z,99146.91
2018-07-17T05:04:39.280Z,99140.94
2018-07-17T05:07:09.970Z,99135.44
2018-07-17T05:09:40.931Z,99127.86
2018-07-17T05:12:11.699Z,99123.13
2018-07-17T05:14:42.610Z,99115.34
2018-07-17T05:17:13.206Z,99111.59
2018-07-17T05:19:43.953Z,99105.20
2018-07-17T05:22:14.690Z,99098.28
2018-07-17T05:24:45.793Z,99108.67
2018-07-17T05:27:16.493Z,99109.01
2018-07-17T05:29:47.161Z,99108.19
2018-07-17T05:32:17.804Z,99098.58
2018-07-17T05:34:48.577Z,99097.36
2018-07-17T05:37:19.403Z,99089.59
2018-07-17T05:39:50.141Z,99084.81
2018-07-17T05:42:20.849Z,99088.02
2018-07-17T05:44:51.794Z,99085.72
2018-07-17T05:47:22.602Z,99078.77
2018-07-17T05:49:53.666Z,99077.70
2018-07-17T05:52:24.295Z,99084.13
2018-07-17T05:54:54.974Z,99081.04
2018-07-17T05:57:25.726Z,99085.67
2018-07-17T05:59:56.531Z,99087.86
2018-07-17T06:02:27.373Z,99089.72
2018-07-17T06:04:59.305Z,99081.24
2018-07-17T06:07:30.232Z,99072.38
2018-07-17T06:10:01.045Z,99072.03
2018-07-17T06:12:31.865Z,99066.05
2018-07-17T06:15:03.745Z,99062.56
2018-07-17T06:17:34.502Z,99060.37
2018-07-17T06:20:05.592Z,99051.60
2018-07-17T06:22:36.393Z,99052.12
2018-07-17T06:25:08.072Z,99054.45
2018-07-17T06:27:38.741Z,99053.98
2018-07-17T06:30:10.845Z,99052.99
2018-07-17T06:32:41.628Z,99048.61
2018-07-17T06:35:12.649Z,99044.59
2018-07-17T06:37:43.462Z,99041.69
2018-07-17T06:40:14.317Z,99039.05
2018-07-17T06:42:45.049Z,99047.50
2018-07-17T06:45:15.745Z,99049.23
2018-07-17T06:47:46.518Z,99042.44
2018-07-17T06:50:18.182Z,99036.70
2018-07-17T06:52:48.749Z,99033.48
2018-07-17T06:55:19.466Z,99029.73
2018-07-17T06:57:50.157Z,99031.70
2018-07-17T07:00:20.993Z,99026.22
2018-07-17T07:02:51.661Z,99032.24
2018-07-17T07:05:22.480Z,99030.97
2018-07-17T07:07:53.210Z,99019.88
2018-07-17T07:10:24.090Z,99013.19
2018-07-17T07:12:55.007Z,99017.20
2018-07-17T07:15:25.793Z,99016.69
2018-07-17T07:17:56.462Z,99012.09
2018-07-17T07:20:27.349Z,99014.84
2018-07-17T07:22:58.062Z,99011.42
2018-07-17T07:25:28.848Z,99009.99
2018-07-17T07:27:59.462Z,99005.16
2018-07-17T07:30:30.390Z,99002.57
2018-07-17T07:33:01.117Z,98998.68
2018-07-17T07:35:31.852Z,98985.89
2018-07-17T07:38:02.833Z,98991.11
2018-07-17T07:40:33.537Z,98986.06
2018-07-17T07:43:04.236Z,98977.42
2018-07-17T07:45:35.032Z,98966.34
2018-07-17T07:48:05.580Z,98970.09
2018-07-17T07:50:36.497Z,98970.06
2018-07-17T07:53:07.437Z,98968.64
2018-07-17T07:55:38.389Z,98971.64
2018-07-17T07:58:09.222Z,98968.09
2018-07-17T08:00:39.895Z,98971.48
2018-07-17T08:03:10.508Z,98968.20
2018-07-17T08:05:41.480Z,98965.37
2018-07-17T08:08:12.128Z,98966.70
2018-07-17T08:10:43.161Z,98960.18
2018-07-17T08:13:13.813Z,98953.81
2018-07-17T08:15:44.480Z,98957.00
2018-07-17T08:18:15.200Z,98951.81
2018-07-17T08:20:45.985Z,98947.19
2018-07-17T08:23:16.592Z,98944.99
2018-07-17T08:25:47.245Z,98944.02
2018-07-17T08:28:17.775Z,98943.47
2018-07-17T08:30:48.440Z,98940.39
2018-07-17T08:33:20.224Z,98936.59
2018-07-17T08:35:51.018Z,98943.03
2018-07-17T08:38:21.905Z,98939.52
2018-07-17T08:40:53.939Z,98947.43
2018-07-17T08:43:24.842Z,98940.32
2018-07-17T08:45:55.586Z,98935.75
2018-07-17T08:48:26.101Z,98944.38
2018-07-17T08:50:56.806Z,98943.19
2018-07-17T08:53:27.401Z,98938.51
2018-07-17T08:55:59.385Z,98941.63
2018-07-17T08:58:30.025Z,98947.37
2018-07-17T09:01:00.725Z,98939.28
2018-07-17T09:03:31.556Z,98941.77
2018-07-17T09:06:02.356Z,98943.25
2018-07-17T09:08:33.073Z,98944.23
2018-07-17T09:11:04.206Z,98949.77
2018-07-17T09:13:34.868Z,98956.72
2018-07-17T09:16:05.731Z,98957.46
2018-07-17T09:18:37.105Z,98958.73
2018-07-17T09:21:08.473Z,98966.52
2018-07-17T09:23:39.264Z,98977.23
2018-07-17T09:26:10.036Z,98976.52
2018-07-17T09:28:40.789Z,98981.67
2018-07-17T09:31:11.661Z,98987.95
2018-07-17T09:33:42.347Z,99004.77
2018-07-17T09:36:13.209Z,99023.45
2018-07-17T09:38:43.922Z,99095.74
2018-07-17T09:41:14.958Z,99123.80
2018-07-17T09:43:45.609Z,99145.76
2018-07-17T09:46:16.277Z,99195.67
2018-07-17T09:48:46.961Z,99180.69
2018-07-17T09:51:17.084Z,99165.10
2018-07-17T09:53:47.585Z,99150.75
2018-07-17T09:56:18.197Z,99144.78
2018-07-17T09:58:48.821Z,99144.59
2018-07-17T10:01:26.725Z,99148.56
2018-07-17T10:03:57.753Z,99143.31
2018-07-17T10:06:28.367Z,99132.89
2018-07-17T10:08:59.119Z,99127.38
2018-07-17T10:11:29.882Z,99125.77
2018-07-17T10:14:00.489Z,99129.38
2018-07-17T10:16:31.685Z,99129.29
2018-07-17T10:19:02.268Z,99126.89
2018-07-17T10:21:32.881Z,99108.11
2018-07-17T10:24:03.509Z,99102.55
2018-07-17T10:26:34.390Z,99099.23
2018-07-17T10:29:04.944Z,99098.25
2018-07-17T10:31:35.597Z,99090.03
2018-07-17T10:34:06.321Z,99084.11
2018-07-17T10:36:36.961Z,99089.23
2018-07-17T10:39:10.087Z,99085.13
2018-07-17T10:41:40.818Z,99077.84
2018-07-17T10:44:11.538Z,99068.94
2018-07-17T10:46:42.396Z,99060.45
2018-07-17T10:49:13.104Z,99070.77
2018-07-17T10:51:43.920Z,99079.98
2018-07-17T10:54:14.581Z,99085.40
2018-07-17T10:56:45.614Z,99086.39
2018-07-17T10:59:16.249Z,99089.02
2018-07-17T11:01:47.093Z,99090.73
2018-07-17T11:04:17.873Z,99083.48
2018-07-17T11:06:48.639Z,99064.66
2018-07-17T11:09:19.170Z,99053.17
2018-07-17T11:11:49.998Z,99050.63
2018-07-17T11:14:20.512Z,99046.66
2018-07-17T11:16:52.037Z,99045.93
2018-07-17T11:19:22.886Z,99036.45
2018-07-17T11:21:53.686Z,99036.80
2018-07-17T11:24:24.234Z,99026.17
2018-07-17T11:26:54.917Z,99018.24
2018-07-17T11:29:25.493Z,99010.47
2018-07-17T11:31:57.329Z,99004.05
2018-07-17T11:34:28.028Z,98997.56
2018-07-17T11:36:58.730Z,98996.16
2018-07-17T11:39:29.386Z,98990.46
2018-07-17T11:41:59.973Z,98988.98
2018-07-17T11:44:30.752Z,98974.16
2018-07-17T11:47:01.468Z,98957.95
2018-07-17T11:49:32.009Z,98959.21
2018-07-17T11:52:02.860Z,98956.50
2018-07-17T11:54:33.525Z,98956.27
2018-07-17T11:57:04.345Z,98947.66
2018-07-17T11:59:34.939Z,98947.15
2018-07-17T12:02:05.866Z,98950.75
2018-07-17T12:04:36.331Z,98937.38
2018-07-17T12:07:07.153Z,98933.21
2018-07-17T12:09:37.745Z,98920.70
2018-07-17T12:12:08.644Z,98914.45
2018-07-17T12:14:39.209Z,98918.16
2018-07-17T12:17:10.042Z,98913.21
2018-07-17T12:19:40.615Z,98904.97
2018-07-17T12:22:11.317Z,98910.28
2018-07-17T12:24:42.041Z,98913.60
2018-07-17T12:27:12.845Z,98920.80
2018-07-17T12:29:43.622Z,98921.77
2018-07-17T12:32:14.552Z,98927.64
2018-07-17T12:34:44.893Z,98935.36
2018-07-17T12:37:15.807Z,98932.59
2018-07-17T12:39:45.871Z,98935.88
2018-07-17T12:42:17.132Z,98928.59
2018-07-17T12:44:47.561Z,98929.56
2018-07-17T12:47:17.990Z,98928.68
2018-07-17T12:49:48.285Z,98932.51
2018-07-17T12:52:18.711Z,98927.43
2018-07-17T12:54:49.057Z,98927.20
2018-07-17T12:57:20.084Z,98926.73
2018-07-17T12:59:50.434Z,98929.34
2018-07-17T13:02:20.782Z,98911.94
2018-07-17T13:04:51.004Z,98914.27
2018-07-17T13:07:21.790Z,98905.48
2018-07-17T13:09:52.344Z,98909.98
2018-07-17T13:12:22.937Z,98902.59
2018-07-17T13:14:53.965Z,98900.20
2018-07-17T13:17:24.436Z,98902.16
2018-07-17T13:19:55.327Z,98891.39
2018-07-17T13:22:26.109Z,98895.61
2018-07-17T13:24:57.039Z,98893.99
2018-07-17T13:27:27.678Z,98893.13
2018-07-17T13:29:58.054Z,98886.66
2018-07-17T13:32:28.396Z,98884.33
2018-07-17T13:34:59.189Z,98882.31
2018-07-17T13:37:29.237Z,98875.59
2018-07-17T13:39:59.678Z,98880.77
2018-07-17T13:42:30.026Z,98876.96
2018-07-17T13:45:00.432Z,98876.42
2018-07-17T13:47:30.746Z,98874.80
2018-07-17T13:50:01.489Z,98874.82
2018-07-17T13:52:32.072Z,98873.33
2018-07-17T13:55:02.706Z,98872.70
2018-07-17T13:57:33.032Z,98873.59
2018-07-17T14:00:04.147Z,98873.63
2018-07-17T14:02:34.449Z,98866.11
2018-07-17T14:05:05.229Z,98868.42
2018-07-17T14:07:35.521Z,98861.09
2018-07-17T14:10:06.108Z,98862.08
2018-07-17T14:12:36.349Z,98857.65
2018-07-17T14:15:07.072Z,98857.06
2018-07-17T14:17:37.415Z,98862.70
2018-07-17T14:20:08.137Z,98854.20
2018-07-17T14:22:39.003Z,98852.03
2018-07-17T14:25:09.486Z,98849.91
2018-07-17T14:27:39.858Z,98846.03
2018-07-17T14:30:10.232Z,98838.30
2018-07-17T14:32:40.623Z,98827.67
2018-07-17T14:35:11.177Z,98829.23
2018-07-17T14:37:41.482Z,98827.00
2018-07-17T14:40:12.290Z,98820.33
2018-07-17T14:42:42.582Z,98818.64
2018-07-17T14:45:12.734Z,98815.66
2018-07-17T14:47:43.301Z,98806.11
2018-07-17T14:50:14.297Z,98810.38
2018-07-17T14:52:44.881Z,98814.13
2018-07-17T14:55:15.870Z,98812.78
2018-07-17T14:57:46.204Z,98812.92
2018-07-17T15:00:16.832Z,98812.06
2018-07-17T15:02:47.273Z,98809.27
2018-07-17T15:05:17.966Z,98802.31
2018-07-17T15:07:49.087Z,98799.83
2018-07-17T15:10:19.409Z,98804.37
2018-07-17T15:12:51.424Z,98802.54
2018-07-17T15:15:21.895Z,98800.87
2018-07-17T15:17:52.185Z,98798.20
2018-07-17T15:20:22.545Z,98799.92
2018-07-17T15:22:53.498Z,98798.17
2018-07-17T15:25:24.394Z,98802.14
2018-07-17T15:27:55.185Z,98806.13
2018-07-17T15:30:25.896Z,98797.73
2018-07-17T15:32:56.505Z,98808.55
2018-07-17T15:35:27.178Z,98806.64
2018-07-17T15:37:57.534Z,98807.80
2018-07-17T15:40:27.977Z,98808.52
2018-07-17T15:42:58.349Z,98803.98
2018-07-17T15:45:29.014Z,98802.70
2018-07-17T15:47:59.253Z,98795.67
2018-07-17T15:50:30.244Z,98799.91
2018-07-17T15:53:01.114Z,98796.73
2018-07-17T15:55:31.604Z,98798.94
2018-07-17T15:58:01.906Z,98798.13
2018-07-17T16:00:32.477Z,98794.97
2018-07-17T16:03:03.108Z,98799.41
2018-07-17T16:05:33.986Z,98802.20
2018-07-17T16:08:04.753Z,98808.98
2018-07-17T16:10:34.804Z,98811.04
2018-07-17T16:13:05.072Z,98814.89
2018-07-17T16:15:35.949Z,98809.94
2018-07-17T16:18:06.766Z,98811.47
2018-07-17T16:20:37.457Z,98804.75
2018-07-17T16:23:08.365Z,98797.29
2018-07-17T16:25:39.464Z,98797.50
2018-07-17T16:28:10.328Z,98794.19
2018-07-17T16:30:40.693Z,98802.20
2018-07-17T16:33:11.019Z,98805.40
2018-07-17T16:35:41.256Z,98798.73
2018-07-17T16:38:11.786Z,98800.55
2018-07-17T16:40:42.027Z,98801.84
2018-07-17T16:43:12.300Z,98808.25
2018-07-17T16:45:42.548Z,98802.73
2018-07-17T16:48:13.092Z,98807.98
2018-07-17T16:50:43.467Z,98816.55
2018-07-17T16:53:13.757Z,98817.47
2018-07-17T16:55:44.152Z,98814.31
2018-07-17T16:58:14.550Z,98825.21
2018-07-17T17:00:44.842Z,98827.90
2018-07-17T17:03:15.130Z,98830.52
2018-07-17T17:05:45.817Z,98834.68
2018-07-17T17:08:16.074Z,98846.31
2018-07-17T17:10:46.405Z,98851.63
2018-07-17T17:13:16.617Z,98850.99
2018-07-17T17:15:47.066Z,98858.80
2018-07-17T17:18:17.400Z,98849.67
2018-07-17T17:20:47.751Z,98851.50
2018-07-17T17:23:18.049Z,98851.67
2018-07-17T17:25:48.618Z,98845.62
2018-07-17T17:28:18.872Z,98853.38
2018-07-17T17:30:49.215Z,98855.16
2018-07-17T17:33:19.580Z,98855.98
2018-07-17T17:35:50.993Z,98868.94
2018-07-17T17:38:21.339Z,98869.41
2018-07-17T17:40:51.816Z,98870.42
2018-07-17T17:43:22.174Z,98872.19
2018-07-17T17:45:52.613Z,98868.09
2018-07-17T17:48:22.916Z,98867.63
2018-07-17T17:50:53.328Z,98863.44
2018-07-17T17:53:23.557Z,98858.73
2018-07-17T17:55:57.163Z,98860.33
2018-07-17T17:58:27.513Z,98858.48
2018-07-17T18:00:57.909Z,98865.87
2018-07-17T18:03:28.168Z,98861.89
2018-07-17T18:05:58.577Z,98866.05
2018-07-17T18:08:28.884Z,98866.27
2018-07-17T18:10:59.133Z,98867.90
2018-07-17T18:13:29.666Z,98868.80
2018-07-17T18:15:59.953Z,98862.53
2018-07-17T18:18:30.379Z,98861.22
2018-07-17T18:21:00.677Z,98857.27
2018-07-17T18:23:30.916Z,98869.55
2018-07-17T18:26:01.642Z,98869.41
2018-07-17T18:28:31.932Z,98867.48
2018-07-17T18:31:02.417Z,98878.23
2018-07-17T18:33:32.737Z,98877.77
2018-07-17T18:36:04.341Z,98874.95
2018-07-17T18:38:34.661Z,98880.41
2018-07-17T18:41:04.956Z,98883.59
2018-07-17T18:43:35.497Z,98885.27
2018-07-17T18:46:06.129Z,98879.44
2018-07-17T18:48:36.510Z,98875.65
2018-07-17T18:51:06.801Z,98871.16
2018-07-17T18:53:37.206Z,98870.80
2018-07-17T18:56:07.819Z,98872.19
2018-07-17T18:58:39.806Z,98870.12
2018-07-17T19:01:10.075Z,98875.23
2018-07-17T19:03:40.773Z,98877.49
2018-07-17T19:06:12.839Z,98874.08
2018-07-17T19:08:43.165Z,98875.24
2018-07-17T19:11:13.567Z,98885.16
2018-07-17T19:13:44.072Z,98872.08
2018-07-17T19:16:14.349Z,98868.52
2018-07-17T19:18:45.185Z,98873.32
2018-07-17T19:21:15.604Z,98875.84
2018-07-17T19:23:46.185Z,98869.52
2018-07-17T19:26:16.482Z,98871.30
2018-07-17T19:28:47.073Z,98875.84
2018-07-17T19:31:17.381Z,98881.00
2018-07-17T19:33:48.080Z,98883.58
2018-07-17T19:36:19.157Z,98880.84
2018-07-17T19:38:49.637Z,98875.55
2018-07-17T19:41:19.911Z,98880.02
2018-07-17T19:43:50.929Z,98879.18
2018-07-17T19:46:21.249Z,98883.19
2018-07-17T19:48:51.751Z,98882.05
2018-07-17T19:51:22.105Z,98889.19
2018-07-17T19:53:52.949Z,98887.04
2018-07-17T19:56:23.224Z,98887.64
2018-07-17T19:58:53.526Z,98893.11
2018-07-17T20:01:23.781Z,98896.00
2018-07-17T20:03:54.236Z,98895.23
2018-07-17T20:06:24.818Z,98898.22
2018-07-17T20:08:55.673Z,98901.20
2018-07-17T20:11:26.397Z,98907.76
2018-07-17T20:13:57.500Z,98906.79
2018-07-17T20:16:27.866Z,98905.02
2018-07-17T20:18:58.406Z,98905.72
2018-07-17T20:21:28.733Z,98897.73
2018-07-17T20:23:58.794Z,98901.73
2018-07-17T20:26:29.344Z,98899.70
2018-07-17T20:29:00.185Z,98897.91
2018-07-17T20:31:30.846Z,98900.39
2018-07-17T20:34:01.539Z,98903.70
2018-07-17T20:36:32.232Z,98910.73
2018-07-17T20:39:02.916Z,98901.13
2018-07-17T20:41:33.400Z,98902.91
2018-07-17T20:44:04.301Z,98902.09
2018-07-17T20:46:35.053Z,98899.23
2018-07-17T20:49:05.853Z,98900.30
2018-07-17T20:51:36.570Z,98909.75
2018-07-17T20:54:07.648Z,98908.39
2018-07-17T20:56:38.172Z,98907.30
2018-07-17T20:59:08.969Z,98907.58
2018-07-17T21:01:39.566Z,98906.87
2018-07-17T21:04:10.269Z,98904.16
2018-07-17T21:06:40.901Z,98904.95
2018-07-17T21:09:12.625Z,98903.29
2018-07-17T21:11:43.114Z,98908.23
2018-07-17T21:14:14.063Z,98907.66
2018-07-17T21:16:44.316Z,98912.36
2018-07-17T21:19:14.998Z,98911.80
2018-07-17T21:21:46.026Z,98916.40
2018-07-17T21:24:16.338Z,98913.64
2018-07-17T21:26:47.161Z,98925.57
2018-07-17T21:29:17.866Z,98925.35
2018-07-17T21:31:48.889Z,98928.07
2018-07-17T21:34:19.536Z,98921.16
2018-07-17T21:36:50.169Z,98921.42
2018-07-17T21:39:20.953Z,98919.72
2018-07-17T21:41:52.026Z,98916.97
2018-07-17T21:44:22.725Z,98916.05
2018-07-17T21:46:53.461Z,98910.77
2018-07-17T21:49:24.154Z,98914.83
2018-07-17T21:51:54.636Z,98908.75
2018-07-17T21:54:25.409Z,98913.52
2018-07-17T21:56:56.201Z,98916.05
2018-07-17T21:59:26.925Z,98922.08
2018-07-17T22:01:57.593Z,98925.23
2018-07-17T22:04:27.885Z,98915.39
2018-07-17T22:06:58.694Z,98919.51
2018-07-17T22:09:29.009Z,98918.58
2018-07-17T22:11:59.341Z,98913.61
2018-07-17T22:14:29.601Z,98904.58
2018-07-17T22:16:59.905Z,98909.34
2018-07-17T22:19:30.117Z,98912.98
2018-07-17T22:22:00.453Z,98916.39
2018-07-17T22:24:30.754Z,98913.45
2018-07-17T22:27:01.214Z,98913.41
2018-07-17T22:29:31.467Z,98916.28
2018-07-17T22:32:01.757Z,98915.15
2018-07-17T22:34:31.657Z,98912.25
2018-07-17T22:37:01.927Z,98906.52
2018-07-17T22:39:32.699Z,98908.31
2018-07-17T22:42:02.990Z,98907.22
2018-07-17T22:44:33.540Z,98912.95
2018-07-17T22:47:04.373Z,98911.03
2018-07-17T22:49:36.752Z,98915.02
2018-07-17T22:52:07.413Z,98912.50
2018-07-17T22:54:38.395Z,98908.08
2018-07-17T22:57:08.681Z,98906.03
2018-07-17T22:59:39.385Z,98902.18
2018-07-17T23:02:10.211Z,98902.20
2018-07-17T23:04:40.970Z,98895.20
2018-07-17T23:07:11.010Z,98901.05
2018-07-17T23:09:41.657Z,98905.72
2018-07-17T23:12:12.270Z,98909.27
2018-07-17T23:14:42.906Z,98910.02
2018-07-17T23:17:13.520Z,98916.04
2018-07-17T23:19:44.345Z,98918.30
2018-07-17T23:22:18.385Z,98925.22
2018-07-17T23:24:49.341Z,98924.24
2018-07-17T23:27:19.982Z,98918.78
2018-07-17T23:29:50.661Z,98911.14
2018-07-17T23:32:21.412Z,98923.72
2018-07-17T23:34:52.250Z,98914.43
2018-07-17T23:37:22.913Z,98912.94
2018-07-17T23:39:54.608Z,98908.11
2018-07-17T23:42:25.374Z,98916.20
2018-07-17T23:44:56.174Z,98918.10
2018-07-17T23:47:26.781Z,98918.45
2018-07-17T23:49:57.610Z,98919.68
2018-07-17T23:52:28.339Z,98919.00
2018-07-17T23:54:59.256Z,98917.63
2018-07-17T23:57:29.910Z,98918.59
